sensor_id;sensor_type;location;lat;lon;timestamp;P1;durP1;ratioP1;P2;durP2;ratioP2
37199;SDS011;23096;50.892;16.746;2022-07-06T00:01:20;5.30;;;2.37;;
37199;SDS011;23096;50.892;16.746;2022-07-06T00:03:47;3.35;;;1.92;;
37199;SDS011;23096;50.892;16.746;2022-07-06T00:06:13;3.77;;;2.47;;
37199;SDS011;23096;50.892;16.746;2022-07-06T00:08:41;2.45;;;2.25;;
37199;SDS011;23096;50.892;16.746;2022-07-06T00:11:08;2.42;;;1.77;;
37199;SDS011;23096;50.892;16.746;2022-07-06T00:13:35;3.83;;;2.77;;
37199;SDS011;23096;50.892;16.746;2022-07-06T00:16:02;3.25;;;2.42;;
37199;SDS011;23096;50.892;16.746;2022-07-06T00:18:29;3.62;;;2.10;;
37199;SDS011;23096;50.892;16.746;2022-07-06T00:20:55;4.83;;;3.08;;
37199;SDS011;23096;50.892;16.746;2022-07-06T00:23:22;3.00;;;2.42;;
37199;SDS011;23096;50.892;16.746;2022-07-06T00:25:48;4.75;;;2.75;;
37199;SDS011;23096;50.892;16.746;2022-07-06T00:28:15;4.25;;;2.70;;
37199;SDS011;23096;50.892;16.746;2022-07-06T00:30:42;5.87;;;2.67;;
37199;SDS011;23096;50.892;16.746;2022-07-06T00:33:08;4.85;;;3.12;;
37199;SDS011;23096;50.892;16.746;2022-07-06T00:35:34;6.08;;;2.80;;
37199;SDS011;23096;50.892;16.746;2022-07-06T00:38:00;5.60;;;3.15;;
37199;SDS011;23096;50.892;16.746;2022-07-06T00:40:27;3.95;;;2.60;;
37199;SDS011;23096;50.892;16.746;2022-07-06T00:42:56;7.05;;;3.87;;
37199;SDS011;23096;50.892;16.746;2022-07-06T00:45:23;5.25;;;2.92;;
37199;SDS011;23096;50.892;16.746;2022-07-06T00:47:49;4.10;;;2.52;;
37199;SDS011;23096;50.892;16.746;2022-07-06T00:50:16;5.95;;;2.92;;
37199;SDS011;23096;50.892;16.746;2022-07-06T00:52:46;3.65;;;2.70;;
37199;SDS011;23096;50.892;16.746;2022-07-06T00:55:15;3.37;;;2.70;;
37199;SDS011;23096;50.892;16.746;2022-07-06T00:57:45;4.90;;;2.42;;
37199;SDS011;23096;50.892;16.746;2022-07-06T01:00:12;5.50;;;3.40;;
37199;SDS011;23096;50.892;16.746;2022-07-06T01:02:41;3.95;;;2.83;;
37199;SDS011;23096;50.892;16.746;2022-07-06T01:05:10;3.45;;;2.27;;
37199;SDS011;23096;50.892;16.746;2022-07-06T01:07:39;6.35;;;3.60;;
37199;SDS011;23096;50.892;16.746;2022-07-06T01:10:09;3.98;;;2.90;;
37199;SDS011;23096;50.892;16.746;2022-07-06T01:12:42;4.37;;;3.02;;
37199;SDS011;23096;50.892;16.746;2022-07-06T01:15:12;4.12;;;3.10;;
37199;SDS011;23096;50.892;16.746;2022-07-06T01:17:39;4.75;;;3.25;;
37199;SDS011;23096;50.892;16.746;2022-07-06T01:20:08;3.90;;;3.22;;
37199;SDS011;23096;50.892;16.746;2022-07-06T01:22:42;3.98;;;2.50;;
37199;SDS011;23096;50.892;16.746;2022-07-06T01:25:10;4.95;;;3.12;;
37199;SDS011;23096;50.892;16.746;2022-07-06T01:27:38;3.67;;;3.08;;
37199;SDS011;23096;50.892;16.746;2022-07-06T01:30:06;4.05;;;3.15;;
37199;SDS011;23096;50.892;16.746;2022-07-06T01:32:36;3.45;;;2.90;;
37199;SDS011;23096;50.892;16.746;2022-07-06T01:35:03;3.17;;;2.80;;
37199;SDS011;23096;50.892;16.746;2022-07-06T01:37:35;6.85;;;3.77;;
37199;SDS011;23096;50.892;16.746;2022-07-06T01:40:03;4.42;;;3.47;;
37199;SDS011;23096;50.892;16.746;2022-07-06T01:42:34;5.05;;;3.60;;
37199;SDS011;23096;50.892;16.746;2022-07-06T01:45:01;5.17;;;3.12;;
37199;SDS011;23096;50.892;16.746;2022-07-06T01:47:29;7.55;;;3.60;;
37199;SDS011;23096;50.892;16.746;2022-07-06T01:49:59;5.25;;;3.58;;
37199;SDS011;23096;50.892;16.746;2022-07-06T01:52:32;4.20;;;3.50;;
37199;SDS011;23096;50.892;16.746;2022-07-06T01:55:00;3.27;;;2.67;;
37199;SDS011;23096;50.892;16.746;2022-07-06T01:57:28;2.95;;;2.65;;
37199;SDS011;23096;50.892;16.746;2022-07-06T01:59:54;4.15;;;3.20;;
37199;SDS011;23096;50.892;16.746;2022-07-06T02:02:20;5.25;;;3.00;;
37199;SDS011;23096;50.892;16.746;2022-07-06T02:04:47;6.75;;;3.12;;
37199;SDS011;23096;50.892;16.746;2022-07-06T02:07:13;4.15;;;3.12;;
37199;SDS011;23096;50.892;16.746;2022-07-06T02:09:39;4.12;;;3.37;;
37199;SDS011;23096;50.892;16.746;2022-07-06T02:12:05;5.22;;;3.35;;
37199;SDS011;23096;50.892;16.746;2022-07-06T02:14:34;6.50;;;3.98;;
37199;SDS011;23096;50.892;16.746;2022-07-06T02:17:01;8.98;;;3.60;;
37199;SDS011;23096;50.892;16.746;2022-07-06T02:19:27;4.60;;;4.10;;
37199;SDS011;23096;50.892;16.746;2022-07-06T02:21:53;8.58;;;3.80;;
37199;SDS011;23096;50.892;16.746;2022-07-06T02:24:19;9.55;;;4.28;;
37199;SDS011;23096;50.892;16.746;2022-07-06T02:26:46;4.67;;;3.40;;
37199;SDS011;23096;50.892;16.746;2022-07-06T02:29:13;6.22;;;3.87;;
37199;SDS011;23096;50.892;16.746;2022-07-06T02:31:39;5.92;;;3.58;;
37199;SDS011;23096;50.892;16.746;2022-07-06T02:34:05;6.22;;;3.98;;
37199;SDS011;23096;50.892;16.746;2022-07-06T02:36:31;8.08;;;3.62;;
37199;SDS011;23096;50.892;16.746;2022-07-06T02:38:58;10.23;;;4.62;;
37199;SDS011;23096;50.892;16.746;2022-07-06T02:41:26;5.95;;;4.00;;
37199;SDS011;23096;50.892;16.746;2022-07-06T02:43:52;7.00;;;4.30;;
37199;SDS011;23096;50.892;16.746;2022-07-06T02:46:18;4.67;;;4.15;;
37199;SDS011;23096;50.892;16.746;2022-07-06T02:48:45;7.78;;;4.42;;
37199;SDS011;23096;50.892;16.746;2022-07-06T02:51:11;8.75;;;3.98;;
37199;SDS011;23096;50.892;16.746;2022-07-06T02:53:37;7.62;;;4.40;;
37199;SDS011;23096;50.892;16.746;2022-07-06T02:56:04;5.40;;;4.03;;
37199;SDS011;23096;50.892;16.746;2022-07-06T02:58:31;7.33;;;4.30;;
37199;SDS011;23096;50.892;16.746;2022-07-06T03:00:57;5.60;;;3.42;;
37199;SDS011;23096;50.892;16.746;2022-07-06T03:03:23;6.87;;;3.95;;
37199;SDS011;23096;50.892;16.746;2022-07-06T03:05:50;8.70;;;3.72;;
37199;SDS011;23096;50.892;16.746;2022-07-06T03:08:17;4.03;;;3.47;;
37199;SDS011;23096;50.892;16.746;2022-07-06T03:10:43;4.97;;;4.00;;
37199;SDS011;23096;50.892;16.746;2022-07-06T03:13:10;11.85;;;4.17;;
37199;SDS011;23096;50.892;16.746;2022-07-06T03:15:36;9.15;;;4.35;;
37199;SDS011;23096;50.892;16.746;2022-07-06T03:18:03;9.25;;;4.60;;
37199;SDS011;23096;50.892;16.746;2022-07-06T03:20:30;11.48;;;4.75;;
37199;SDS011;23096;50.892;16.746;2022-07-06T03:22:56;8.83;;;4.58;;
37199;SDS011;23096;50.892;16.746;2022-07-06T03:25:22;7.87;;;5.05;;
37199;SDS011;23096;50.892;16.746;2022-07-06T03:27:49;13.62;;;5.40;;
37199;SDS011;23096;50.892;16.746;2022-07-06T03:30:16;9.60;;;4.87;;
37199;SDS011;23096;50.892;16.746;2022-07-06T03:32:44;6.67;;;4.97;;
37199;SDS011;23096;50.892;16.746;2022-07-06T03:35:11;5.53;;;4.70;;
37199;SDS011;23096;50.892;16.746;2022-07-06T03:37:37;9.83;;;4.08;;
37199;SDS011;23096;50.892;16.746;2022-07-06T03:40:04;7.08;;;4.67;;
37199;SDS011;23096;50.892;16.746;2022-07-06T03:42:32;8.78;;;4.00;;
37199;SDS011;23096;50.892;16.746;2022-07-06T03:44:58;7.17;;;4.08;;
37199;SDS011;23096;50.892;16.746;2022-07-06T03:47:25;6.47;;;3.98;;
37199;SDS011;23096;50.892;16.746;2022-07-06T03:49:51;7.12;;;4.55;;
37199;SDS011;23096;50.892;16.746;2022-07-06T03:52:18;7.45;;;4.30;;
37199;SDS011;23096;50.892;16.746;2022-07-06T03:54:46;9.65;;;4.87;;
37199;SDS011;23096;50.892;16.746;2022-07-06T03:57:13;8.95;;;5.12;;
37199;SDS011;23096;50.892;16.746;2022-07-06T03:59:40;5.60;;;3.90;;
37199;SDS011;23096;50.892;16.746;2022-07-06T04:02:06;9.00;;;5.17;;
37199;SDS011;23096;50.892;16.746;2022-07-06T04:04:33;4.15;;;3.72;;
37199;SDS011;23096;50.892;16.746;2022-07-06T04:07:00;4.65;;;3.58;;
37199;SDS011;23096;50.892;16.746;2022-07-06T04:09:27;6.28;;;3.75;;
37199;SDS011;23096;50.892;16.746;2022-07-06T04:11:53;5.90;;;3.80;;
37199;SDS011;23096;50.892;16.746;2022-07-06T04:14:20;7.08;;;4.60;;
37199;SDS011;23096;50.892;16.746;2022-07-06T04:16:46;6.65;;;3.90;;
37199;SDS011;23096;50.892;16.746;2022-07-06T04:19:13;5.58;;;4.25;;
37199;SDS011;23096;50.892;16.746;2022-07-06T04:21:40;6.80;;;4.45;;
37199;SDS011;23096;50.892;16.746;2022-07-06T04:24:07;6.80;;;3.25;;
37199;SDS011;23096;50.892;16.746;2022-07-06T04:26:34;6.55;;;3.98;;
37199;SDS011;23096;50.892;16.746;2022-07-06T04:29:00;4.33;;;3.27;;
37199;SDS011;23096;50.892;16.746;2022-07-06T04:31:26;5.58;;;3.70;;
37199;SDS011;23096;50.892;16.746;2022-07-06T04:33:53;7.45;;;3.55;;
37199;SDS011;23096;50.892;16.746;2022-07-06T04:36:20;4.25;;;2.95;;
37199;SDS011;23096;50.892;16.746;2022-07-06T04:38:46;3.17;;;2.87;;
37199;SDS011;23096;50.892;16.746;2022-07-06T04:41:13;3.50;;;2.87;;
37199;SDS011;23096;50.892;16.746;2022-07-06T04:43:40;3.75;;;2.75;;
37199;SDS011;23096;50.892;16.746;2022-07-06T04:46:08;3.42;;;2.85;;
37199;SDS011;23096;50.892;16.746;2022-07-06T04:48:36;3.12;;;2.83;;
37199;SDS011;23096;50.892;16.746;2022-07-06T04:51:04;2.37;;;2.15;;
37199;SDS011;23096;50.892;16.746;2022-07-06T04:53:30;3.17;;;2.50;;
37199;SDS011;23096;50.892;16.746;2022-07-06T04:55:57;4.67;;;2.55;;
37199;SDS011;23096;50.892;16.746;2022-07-06T04:58:23;5.72;;;2.65;;
37199;SDS011;23096;50.892;16.746;2022-07-06T05:00:50;3.42;;;2.05;;
37199;SDS011;23096;50.892;16.746;2022-07-06T05:03:16;1.95;;;1.77;;
37199;SDS011;23096;50.892;16.746;2022-07-06T05:05:42;2.20;;;2.00;;
37199;SDS011;23096;50.892;16.746;2022-07-06T05:08:09;4.62;;;2.00;;
37199;SDS011;23096;50.892;16.746;2022-07-06T05:10:35;2.35;;;2.17;;
37199;SDS011;23096;50.892;16.746;2022-07-06T05:13:01;3.50;;;3.20;;
37199;SDS011;23096;50.892;16.746;2022-07-06T05:15:27;3.62;;;2.22;;
37199;SDS011;23096;50.892;16.746;2022-07-06T05:17:54;1.98;;;1.87;;
37199;SDS011;23096;50.892;16.746;2022-07-06T05:20:20;2.30;;;2.10;;
37199;SDS011;23096;50.892;16.746;2022-07-06T05:22:47;2.33;;;2.02;;
37199;SDS011;23096;50.892;16.746;2022-07-06T05:25:15;2.50;;;1.95;;
37199;SDS011;23096;50.892;16.746;2022-07-06T05:27:41;2.33;;;2.12;;
37199;SDS011;23096;50.892;16.746;2022-07-06T05:30:08;2.12;;;1.90;;
37199;SDS011;23096;50.892;16.746;2022-07-06T05:32:36;2.85;;;2.40;;
37199;SDS011;23096;50.892;16.746;2022-07-06T05:35:03;2.67;;;2.15;;
37199;SDS011;23096;50.892;16.746;2022-07-06T05:37:30;1.90;;;1.77;;
37199;SDS011;23096;50.892;16.746;2022-07-06T05:39:57;3.10;;;1.87;;
37199;SDS011;23096;50.892;16.746;2022-07-06T05:42:24;2.52;;;2.33;;
37199;SDS011;23096;50.892;16.746;2022-07-06T05:44:54;2.45;;;2.25;;
37199;SDS011;23096;50.892;16.746;2022-07-06T05:47:22;2.22;;;2.08;;
37199;SDS011;23096;50.892;16.746;2022-07-06T05:50:07;5.00;;;2.25;;
37199;SDS011;23096;50.892;16.746;2022-07-06T05:52:51;2.55;;;2.17;;
37199;SDS011;23096;50.892;16.746;2022-07-06T05:55:24;4.10;;;1.87;;
37199;SDS011;23096;50.892;16.746;2022-07-06T05:57:51;6.20;;;1.82;;
37199;SDS011;23096;50.892;16.746;2022-07-06T06:00:23;2.05;;;1.77;;
37199;SDS011;23096;50.892;16.746;2022-07-06T06:05:18;1.45;;;1.35;;
37199;SDS011;23096;50.892;16.746;2022-07-06T06:07:47;1.42;;;1.32;;
37199;SDS011;23096;50.892;16.746;2022-07-06T06:10:15;2.00;;;1.80;;
37199;SDS011;23096;50.892;16.746;2022-07-06T06:12:43;1.45;;;1.35;;
37199;SDS011;23096;50.892;16.746;2022-07-06T06:15:10;1.98;;;1.35;;
37199;SDS011;23096;50.892;16.746;2022-07-06T06:17:37;4.53;;;1.80;;
37199;SDS011;23096;50.892;16.746;2022-07-06T06:20:05;4.40;;;1.80;;
37199;SDS011;23096;50.892;16.746;2022-07-06T06:22:48;2.10;;;1.85;;
37199;SDS011;23096;50.892;16.746;2022-07-06T06:25:18;1.52;;;1.42;;
37199;SDS011;23096;50.892;16.746;2022-07-06T06:27:53;2.15;;;1.52;;
37199;SDS011;23096;50.892;16.746;2022-07-06T06:30:19;2.50;;;1.80;;
37199;SDS011;23096;50.892;16.746;2022-07-06T06:32:46;2.00;;;1.80;;
37199;SDS011;23096;50.892;16.746;2022-07-06T06:35:13;4.72;;;2.37;;
37199;SDS011;23096;50.892;16.746;2022-07-06T06:37:39;1.60;;;1.50;;
37199;SDS011;23096;50.892;16.746;2022-07-06T06:40:06;3.37;;;2.30;;
37199;SDS011;23096;50.892;16.746;2022-07-06T06:42:36;4.85;;;1.70;;
37199;SDS011;23096;50.892;16.746;2022-07-06T06:45:05;1.70;;;1.60;;
37199;SDS011;23096;50.892;16.746;2022-07-06T06:47:32;2.83;;;1.80;;
37199;SDS011;23096;50.892;16.746;2022-07-06T06:49:58;1.60;;;1.50;;
37199;SDS011;23096;50.892;16.746;2022-07-06T06:52:24;2.08;;;1.98;;
37199;SDS011;23096;50.892;16.746;2022-07-06T06:54:50;3.12;;;2.62;;
37199;SDS011;23096;50.892;16.746;2022-07-06T06:57:16;3.60;;;1.67;;
37199;SDS011;23096;50.892;16.746;2022-07-06T06:59:42;3.00;;;1.57;;
37199;SDS011;23096;50.892;16.746;2022-07-06T07:02:09;1.35;;;1.27;;
37199;SDS011;23096;50.892;16.746;2022-07-06T07:04:35;1.90;;;1.40;;
37199;SDS011;23096;50.892;16.746;2022-07-06T07:07:01;1.70;;;1.60;;
37199;SDS011;23096;50.892;16.746;2022-07-06T07:09:28;1.75;;;1.65;;
37199;SDS011;23096;50.892;16.746;2022-07-06T07:11:54;5.40;;;2.08;;
37199;SDS011;23096;50.892;16.746;2022-07-06T07:14:21;3.90;;;1.75;;
37199;SDS011;23096;50.892;16.746;2022-07-06T07:16:47;1.45;;;1.35;;
37199;SDS011;23096;50.892;16.746;2022-07-06T07:19:13;1.57;;;1.47;;
37199;SDS011;23096;50.892;16.746;2022-07-06T07:21:39;3.80;;;1.35;;
37199;SDS011;23096;50.892;16.746;2022-07-06T07:24:06;2.12;;;1.10;;
37199;SDS011;23096;50.892;16.746;2022-07-06T07:26:33;1.60;;;1.50;;
37199;SDS011;23096;50.892;16.746;2022-07-06T07:28:59;2.92;;;1.65;;
37199;SDS011;23096;50.892;16.746;2022-07-06T07:31:25;3.62;;;1.57;;
37199;SDS011;23096;50.892;16.746;2022-07-06T07:33:52;3.15;;;1.47;;
37199;SDS011;23096;50.892;16.746;2022-07-06T07:36:20;3.15;;;1.30;;
37199;SDS011;23096;50.892;16.746;2022-07-06T07:38:47;1.60;;;1.50;;
37199;SDS011;23096;50.892;16.746;2022-07-06T07:41:13;1.37;;;1.30;;
37199;SDS011;23096;50.892;16.746;2022-07-06T07:43:39;6.03;;;1.80;;
37199;SDS011;23096;50.892;16.746;2022-07-06T07:46:05;4.12;;;1.92;;
37199;SDS011;23096;50.892;16.746;2022-07-06T07:48:32;3.17;;;1.82;;
37199;SDS011;23096;50.892;16.746;2022-07-06T07:50:58;2.00;;;1.90;;
37199;SDS011;23096;50.892;16.746;2022-07-06T07:53:24;2.35;;;1.70;;
37199;SDS011;23096;50.892;16.746;2022-07-06T07:55:50;2.65;;;1.40;;
37199;SDS011;23096;50.892;16.746;2022-07-06T07:58:16;4.55;;;2.10;;
37199;SDS011;23096;50.892;16.746;2022-07-06T08:00:42;4.10;;;2.10;;
37199;SDS011;23096;50.892;16.746;2022-07-06T08:03:09;4.55;;;1.95;;
37199;SDS011;23096;50.892;16.746;2022-07-06T08:05:35;1.85;;;1.70;;
37199;SDS011;23096;50.892;16.746;2022-07-06T08:08:02;1.87;;;1.30;;
37199;SDS011;23096;50.892;16.746;2022-07-06T08:10:29;3.25;;;1.32;;
37199;SDS011;23096;50.892;16.746;2022-07-06T08:12:56;1.40;;;1.30;;
37199;SDS011;23096;50.892;16.746;2022-07-06T08:15:22;1.90;;;1.55;;
37199;SDS011;23096;50.892;16.746;2022-07-06T08:17:48;3.20;;;1.30;;
37199;SDS011;23096;50.892;16.746;2022-07-06T08:20:14;1.72;;;1.60;;
37199;SDS011;23096;50.892;16.746;2022-07-06T08:22:43;2.17;;;1.52;;
37199;SDS011;23096;50.892;16.746;2022-07-06T08:25:10;1.62;;;1.30;;
37199;SDS011;23096;50.892;16.746;2022-07-06T08:27:36;2.80;;;1.90;;
37199;SDS011;23096;50.892;16.746;2022-07-06T08:30:03;1.50;;;1.37;;
37199;SDS011;23096;50.892;16.746;2022-07-06T08:32:31;4.53;;;1.98;;
37199;SDS011;23096;50.892;16.746;2022-07-06T08:34:57;5.37;;;1.45;;
37199;SDS011;23096;50.892;16.746;2022-07-06T08:37:23;1.82;;;1.17;;
37199;SDS011;23096;50.892;16.746;2022-07-06T08:39:49;1.60;;;1.50;;
37199;SDS011;23096;50.892;16.746;2022-07-06T08:42:15;2.08;;;1.85;;
37199;SDS011;23096;50.892;16.746;2022-07-06T08:44:42;6.25;;;1.62;;
37199;SDS011;23096;50.892;16.746;2022-07-06T08:47:10;1.90;;;1.10;;
37199;SDS011;23096;50.892;16.746;2022-07-06T08:49:40;2.77;;;1.80;;
37199;SDS011;23096;50.892;16.746;2022-07-06T08:52:07;2.62;;;1.65;;
37199;SDS011;23096;50.892;16.746;2022-07-06T08:54:33;2.33;;;1.45;;
37199;SDS011;23096;50.892;16.746;2022-07-06T08:57:01;1.52;;;1.42;;
37199;SDS011;23096;50.892;16.746;2022-07-06T08:59:29;2.90;;;1.62;;
37199;SDS011;23096;50.892;16.746;2022-07-06T09:01:55;2.45;;;1.55;;
37199;SDS011;23096;50.892;16.746;2022-07-06T09:04:24;2.33;;;1.32;;
37199;SDS011;23096;50.892;16.746;2022-07-06T09:06:51;1.40;;;1.22;;
37199;SDS011;23096;50.892;16.746;2022-07-06T09:09:20;3.02;;;1.45;;
37199;SDS011;23096;50.892;16.746;2022-07-06T09:11:49;4.47;;;1.32;;
37199;SDS011;23096;50.892;16.746;2022-07-06T09:14:17;3.35;;;1.67;;
37199;SDS011;23096;50.892;16.746;2022-07-06T09:16:45;2.50;;;1.22;;
37199;SDS011;23096;50.892;16.746;2022-07-06T09:19:17;3.47;;;1.50;;
37199;SDS011;23096;50.892;16.746;2022-07-06T09:21:43;3.95;;;1.60;;
37199;SDS011;23096;50.892;16.746;2022-07-06T09:24:10;4.22;;;1.42;;
37199;SDS011;23096;50.892;16.746;2022-07-06T09:26:38;2.87;;;1.50;;
37199;SDS011;23096;50.892;16.746;2022-07-06T09:29:06;1.45;;;1.32;;
37199;SDS011;23096;50.892;16.746;2022-07-06T09:31:33;3.52;;;1.62;;
37199;SDS011;23096;50.892;16.746;2022-07-06T09:34:07;2.80;;;1.50;;
37199;SDS011;23096;50.892;16.746;2022-07-06T09:36:48;2.37;;;1.65;;
37199;SDS011;23096;50.892;16.746;2022-07-06T09:41:51;4.22;;;1.98;;
37199;SDS011;23096;50.892;16.746;2022-07-06T09:44:29;3.67;;;1.77;;
37199;SDS011;23096;50.892;16.746;2022-07-06T09:46:55;1.37;;;1.20;;
37199;SDS011;23096;50.892;16.746;2022-07-06T09:49:23;5.10;;;2.08;;
37199;SDS011;23096;50.892;16.746;2022-07-06T09:51:51;2.67;;;2.05;;
37199;SDS011;23096;50.892;16.746;2022-07-06T09:54:20;3.08;;;1.40;;
37199;SDS011;23096;50.892;16.746;2022-07-06T09:56:47;3.98;;;1.85;;
37199;SDS011;23096;50.892;16.746;2022-07-06T09:59:18;5.22;;;1.90;;
37199;SDS011;23096;50.892;16.746;2022-07-06T10:01:48;3.45;;;1.35;;
37199;SDS011;23096;50.892;16.746;2022-07-06T10:04:21;2.02;;;1.40;;
37199;SDS011;23096;50.892;16.746;2022-07-06T10:06:49;2.08;;;1.55;;
37199;SDS011;23096;50.892;16.746;2022-07-06T10:09:16;2.67;;;1.57;;
37199;SDS011;23096;50.892;16.746;2022-07-06T10:11:50;2.42;;;1.15;;
37199;SDS011;23096;50.892;16.746;2022-07-06T10:14:23;3.70;;;1.30;;
37199;SDS011;23096;50.892;16.746;2022-07-06T10:16:58;2.05;;;1.22;;
37199;SDS011;23096;50.892;16.746;2022-07-06T10:19:28;2.05;;;1.10;;
37199;SDS011;23096;50.892;16.746;2022-07-06T10:21:56;2.92;;;1.30;;
37199;SDS011;23096;50.892;16.746;2022-07-06T10:24:25;1.80;;;0.90;;
37199;SDS011;23096;50.892;16.746;2022-07-06T10:26:54;3.87;;;1.30;;
37199;SDS011;23096;50.892;16.746;2022-07-06T10:29:20;1.67;;;1.30;;
37199;SDS011;23096;50.892;16.746;2022-07-06T10:31:47;1.25;;;1.07;;
37199;SDS011;23096;50.892;16.746;2022-07-06T10:34:15;3.75;;;1.82;;
37199;SDS011;23096;50.892;16.746;2022-07-06T10:36:47;1.95;;;1.15;;
37199;SDS011;23096;50.892;16.746;2022-07-06T10:39:37;1.40;;;1.20;;
37199;SDS011;23096;50.892;16.746;2022-07-06T10:43:31;1.70;;;1.12;;
37199;SDS011;23096;50.892;16.746;2022-07-06T10:45:20;1.42;;;1.05;;
37199;SDS011;23096;50.892;16.746;2022-07-06T10:50:51;1.90;;;0.90;;
37199;SDS011;23096;50.892;16.746;2022-07-06T10:55:53;5.58;;;1.40;;
37199;SDS011;23096;50.892;16.746;2022-07-06T11:01:20;5.60;;;1.60;;
37199;SDS011;23096;50.892;16.746;2022-07-06T11:03:47;4.87;;;1.10;;
37199;SDS011;23096;50.892;16.746;2022-07-06T11:06:18;2.30;;;1.17;;
37199;SDS011;23096;50.892;16.746;2022-07-06T11:14:10;1.17;;;1.02;;
37199;SDS011;23096;50.892;16.746;2022-07-06T11:16:40;1.40;;;0.85;;
37199;SDS011;23096;50.892;16.746;2022-07-06T11:19:18;3.95;;;1.55;;
37199;SDS011;23096;50.892;16.746;2022-07-06T11:21:48;2.10;;;1.10;;
37199;SDS011;23096;50.892;16.746;2022-07-06T11:24:18;1.98;;;1.75;;
37199;SDS011;23096;50.892;16.746;2022-07-06T11:26:48;3.98;;;1.30;;
37199;SDS011;23096;50.892;16.746;2022-07-06T11:29:17;4.53;;;2.17;;
37199;SDS011;23096;50.892;16.746;2022-07-06T11:31:48;2.80;;;1.55;;
37199;SDS011;23096;50.892;16.746;2022-07-06T11:34:19;2.20;;;1.32;;
37199;SDS011;23096;50.892;16.746;2022-07-06T11:37:01;4.12;;;1.90;;
37199;SDS011;23096;50.892;16.746;2022-07-06T11:39:29;9.03;;;2.47;;
37199;SDS011;23096;50.892;16.746;2022-07-06T11:41:58;5.33;;;1.80;;
37199;SDS011;23096;50.892;16.746;2022-07-06T11:44:26;5.22;;;2.17;;
37199;SDS011;23096;50.892;16.746;2022-07-06T11:46:53;6.45;;;1.77;;
37199;SDS011;23096;50.892;16.746;2022-07-06T11:49:24;2.50;;;1.92;;
37199;SDS011;23096;50.892;16.746;2022-07-06T11:51:50;2.92;;;1.50;;
37199;SDS011;23096;50.892;16.746;2022-07-06T11:54:20;2.05;;;1.30;;
37199;SDS011;23096;50.892;16.746;2022-07-06T11:56:55;2.37;;;1.75;;
37199;SDS011;23096;50.892;16.746;2022-07-06T11:59:29;3.42;;;1.70;;
37199;SDS011;23096;50.892;16.746;2022-07-06T12:02:02;2.05;;;1.10;;
37199;SDS011;23096;50.892;16.746;2022-07-06T12:04:38;1.22;;;1.12;;
37199;SDS011;23096;50.892;16.746;2022-07-06T12:07:08;3.62;;;1.37;;
37199;SDS011;23096;50.892;16.746;2022-07-06T12:09:37;2.25;;;1.27;;
37199;SDS011;23096;50.892;16.746;2022-07-06T12:12:08;3.17;;;1.55;;
37199;SDS011;23096;50.892;16.746;2022-07-06T12:14:36;3.50;;;1.15;;
37199;SDS011;23096;50.892;16.746;2022-07-06T12:17:05;2.77;;;1.00;;
37199;SDS011;23096;50.892;16.746;2022-07-06T12:22:04;1.40;;;1.30;;
37199;SDS011;23096;50.892;16.746;2022-07-06T12:24:32;1.85;;;1.12;;
37199;SDS011;23096;50.892;16.746;2022-07-06T12:27:15;2.77;;;1.22;;
37199;SDS011;23096;50.892;16.746;2022-07-06T12:29:44;2.60;;;0.88;;
37199;SDS011;23096;50.892;16.746;2022-07-06T12:32:16;1.57;;;1.15;;
37199;SDS011;23096;50.892;16.746;2022-07-06T12:37:11;1.82;;;1.00;;
37199;SDS011;23096;50.892;16.746;2022-07-06T12:39:46;5.65;;;1.62;;
37199;SDS011;23096;50.892;16.746;2022-07-06T12:42:15;2.42;;;0.93;;
37199;SDS011;23096;50.892;16.746;2022-07-06T12:44:44;1.77;;;0.85;;
37199;SDS011;23096;50.892;16.746;2022-07-06T12:47:16;2.17;;;1.12;;
37199;SDS011;23096;50.892;16.746;2022-07-06T12:49:47;4.50;;;1.65;;
37199;SDS011;23096;50.892;16.746;2022-07-06T12:52:13;2.40;;;1.10;;
37199;SDS011;23096;50.892;16.746;2022-07-06T12:54:46;2.45;;;1.17;;
37199;SDS011;23096;50.892;16.746;2022-07-06T12:57:16;2.22;;;1.10;;
37199;SDS011;23096;50.892;16.746;2022-07-06T12:59:57;3.65;;;1.20;;
37199;SDS011;23096;50.892;16.746;2022-07-06T13:02:32;2.40;;;1.12;;
37199;SDS011;23096;50.892;16.746;2022-07-06T13:05:06;5.33;;;1.50;;
37199;SDS011;23096;50.892;16.746;2022-07-06T13:07:37;5.78;;;1.87;;
37199;SDS011;23096;50.892;16.746;2022-07-06T13:10:13;4.60;;;1.20;;
37199;SDS011;23096;50.892;16.746;2022-07-06T13:12:40;3.33;;;1.40;;
37199;SDS011;23096;50.892;16.746;2022-07-06T13:15:08;1.72;;;1.42;;
37199;SDS011;23096;50.892;16.746;2022-07-06T13:17:35;4.65;;;1.25;;
37199;SDS011;23096;50.892;16.746;2022-07-06T13:20:05;1.45;;;1.10;;
37199;SDS011;23096;50.892;16.746;2022-07-06T13:22:33;1.35;;;0.95;;
37199;SDS011;23096;50.892;16.746;2022-07-06T13:25:00;2.35;;;0.95;;
37199;SDS011;23096;50.892;16.746;2022-07-06T13:27:26;2.70;;;1.20;;
37199;SDS011;23096;50.892;16.746;2022-07-06T13:29:52;2.50;;;1.10;;
37199;SDS011;23096;50.892;16.746;2022-07-06T13:35:22;1.17;;;1.07;;
37199;SDS011;23096;50.892;16.746;2022-07-06T13:37:48;2.17;;;1.07;;
37199;SDS011;23096;50.892;16.746;2022-07-06T13:40:18;7.80;;;1.25;;
37199;SDS011;23096;50.892;16.746;2022-07-06T13:42:45;1.27;;;0.90;;
37199;SDS011;23096;50.892;16.746;2022-07-06T13:45:11;3.05;;;1.05;;
37199;SDS011;23096;50.892;16.746;2022-07-06T13:47:37;1.75;;;1.30;;
37199;SDS011;23096;50.892;16.746;2022-07-06T13:50:03;3.67;;;1.02;;
37199;SDS011;23096;50.892;16.746;2022-07-06T13:52:30;2.80;;;1.42;;
37199;SDS011;23096;50.892;16.746;2022-07-06T13:54:56;5.75;;;1.15;;
37199;SDS011;23096;50.892;16.746;2022-07-06T13:57:22;3.47;;;1.32;;
37199;SDS011;23096;50.892;16.746;2022-07-06T13:59:48;4.70;;;1.20;;
37199;SDS011;23096;50.892;16.746;2022-07-06T14:02:14;2.17;;;1.35;;
37199;SDS011;23096;50.892;16.746;2022-07-06T14:04:41;3.17;;;1.30;;
37199;SDS011;23096;50.892;16.746;2022-07-06T14:07:07;3.52;;;1.37;;
37199;SDS011;23096;50.892;16.746;2022-07-06T14:09:33;4.03;;;1.65;;
37199;SDS011;23096;50.892;16.746;2022-07-06T14:11:59;2.33;;;1.20;;
37199;SDS011;23096;50.892;16.746;2022-07-06T14:14:28;3.95;;;1.42;;
37199;SDS011;23096;50.892;16.746;2022-07-06T14:16:54;1.47;;;1.20;;
37199;SDS011;23096;50.892;16.746;2022-07-06T14:19:21;5.53;;;1.27;;
37199;SDS011;23096;50.892;16.746;2022-07-06T14:21:47;4.45;;;1.32;;
37199;SDS011;23096;50.892;16.746;2022-07-06T14:24:14;2.02;;;1.50;;
37199;SDS011;23096;50.892;16.746;2022-07-06T14:26:41;5.65;;;1.80;;
37199;SDS011;23096;50.892;16.746;2022-07-06T14:29:07;3.10;;;1.82;;
37199;SDS011;23096;50.892;16.746;2022-07-06T14:31:33;2.42;;;1.62;;
37199;SDS011;23096;50.892;16.746;2022-07-06T14:33:59;5.55;;;1.62;;
37199;SDS011;23096;50.892;16.746;2022-07-06T14:36:25;2.50;;;1.50;;
37199;SDS011;23096;50.892;16.746;2022-07-06T14:38:51;3.75;;;1.42;;
37199;SDS011;23096;50.892;16.746;2022-07-06T14:41:18;2.25;;;1.45;;
37199;SDS011;23096;50.892;16.746;2022-07-06T14:43:44;2.02;;;1.52;;
37199;SDS011;23096;50.892;16.746;2022-07-06T14:46:10;1.40;;;1.30;;
37199;SDS011;23096;50.892;16.746;2022-07-06T14:48:36;2.75;;;1.30;;
37199;SDS011;23096;50.892;16.746;2022-07-06T14:51:02;4.33;;;1.45;;
37199;SDS011;23096;50.892;16.746;2022-07-06T14:53:29;1.30;;;1.15;;
37199;SDS011;23096;50.892;16.746;2022-07-06T14:55:56;2.10;;;1.42;;
37199;SDS011;23096;50.892;16.746;2022-07-06T14:58:22;2.17;;;1.32;;
37199;SDS011;23096;50.892;16.746;2022-07-06T15:00:48;3.00;;;1.67;;
37199;SDS011;23096;50.892;16.746;2022-07-06T15:03:15;2.10;;;1.27;;
37199;SDS011;23096;50.892;16.746;2022-07-06T15:05:41;3.77;;;1.35;;